Time;durP1;ratioP1;P1;durP2;ratioP2;P2;SDS_P1;SDS_P2;PMS_P1;PMS_P2;Temp;Humidity;BMP_temperature;BMP_pressure;BME280_temperature;BME280_humidity;BME280_pressure;Samples;Min_cycle;Max_cycle;Signal;HPM_P1;HPM_P2
2022/06/08 00:00:45;;;;;;;10.75;5.00;;;10.90;99.90;;;;;;5083570;28;20048;-68
2022/06/08 00:03:16;;;;;;;9.45;4.72;;;10.90;99.90;;;;;;5089877;28;20044;-67
2022/06/08 00:05:42;;;;;;;13.05;5.00;;;10.90;99.90;;;;;;5088894;28;20044;-68
2022/06/08 00:08:08;;;;;;;11.82;4.55;;;10.80;99.90;;;;;;5085005;28;20042;-68
2022/06/08 00:10:34;;;;;;;9.93;4.93;;;10.80;99.90;;;;;;5084154;28;20359;-69
2022/06/08 00:13:00;;;;;;;11.50;4.53;;;10.80;99.90;;;;;;5086399;28;20509;-68
2022/06/08 00:15:26;;;;;;;10.57;4.85;;;10.80;99.90;;;;;;5086295;28;20115;-68
2022/06/08 00:17:52;;;;;;;15.32;5.63;;;10.80;99.90;;;;;;5086366;28;20044;-68
2022/06/08 00:20:18;;;;;;;9.65;5.13;;;10.80;99.90;;;;;;5088756;28;20512;-68
2022/06/08 00:22:44;;;;;;;14.18;5.97;;;10.70;99.90;;;;;;5082099;28;20036;-68
2022/06/08 00:25:10;;;;;;;12.45;5.38;;;10.70;99.90;;;;;;5106826;28;20044;-68
2022/06/08 00:27:37;;;;;;;11.32;5.40;;;10.70;99.90;;;;;;5083972;28;20063;-68
2022/06/08 00:30:05;;;;;;;11.13;5.00;;;10.70;99.90;;;;;;5091556;28;20036;-68
2022/06/08 00:32:30;;;;;;;7.32;5.10;;;10.70;99.90;;;;;;5089004;28;20048;-68
2022/06/08 00:34:56;;;;;;;11.02;5.70;;;10.70;99.90;;;;;;5075940;28;20490;-68
2022/06/08 00:37:23;;;;;;;11.05;5.30;;;10.60;99.90;;;;;;5091510;28;20036;-68
2022/06/08 00:39:49;;;;;;;16.73;6.57;;;10.70;99.90;;;;;;5081720;28;20048;-68
2022/06/08 00:42:16;;;;;;;14.02;5.82;;;10.60;99.90;;;;;;5089207;28;20047;-68
2022/06/08 00:44:47;;;;;;;11.63;5.38;;;10.60;99.90;;;;;;5091409;28;20085;-68
2022/06/08 00:47:19;;;;;;;9.43;5.18;;;10.60;99.90;;;;;;5081461;28;20035;-67
2022/06/08 00:49:58;;;;;;;11.80;5.90;;;10.60;99.90;;;;;;5109903;28;20088;-69
2022/06/08 00:52:26;;;;;;;16.20;6.43;;;10.60;99.90;;;;;;5085337;28;20040;-68
2022/06/08 00:54:57;;;;;;;16.77;6.03;;;10.60;99.90;;;;;;5092230;28;20107;-67
2022/06/08 00:57:33;;;;;;;11.27;5.32;;;10.60;99.90;;;;;;5082924;28;20040;-67
2022/06/08 01:00:08;;;;;;;11.27;5.55;;;10.60;99.90;;;;;;5092536;28;20048;-67
2022/06/08 01:02:34;;;;;;;8.82;5.78;;;10.50;99.90;;;;;;5105831;28;20056;-68
2022/06/08 01:05:34;;;;;;;13.70;5.97;;;10.50;99.90;;;;;;5091075;28;20111;-68
2022/06/08 01:08:25;;;;;;;13.90;6.00;;;10.50;99.90;;;;;;5092447;28;20048;-67
2022/06/08 01:10:55;;;;;;;14.27;6.93;;;10.40;99.90;;;;;;5083504;28;20118;-68
2022/06/08 01:13:21;;;;;;;13.90;6.13;;;10.50;99.90;;;;;;5092395;28;20068;-67
2022/06/08 01:15:48;;;;;;;17.25;6.00;;;10.50;99.90;;;;;;5085619;28;20033;-68
2022/06/08 01:18:14;;;;;;;15.77;6.45;;;10.50;99.90;;;;;;5083843;28;20498;-68
2022/06/08 01:20:48;;;;;;;14.10;6.95;;;10.50;99.90;;;;;;5092208;28;20093;-68
2022/06/08 01:23:15;;;;;;;22.02;7.13;;;10.40;99.90;;;;;;5093726;28;20064;-68
2022/06/08 01:26:18;;;;;;;18.23;6.93;;;10.50;99.90;;;;;;5089818;28;20100;-67
2022/06/08 01:29:06;;;;;;;11.20;6.43;;;10.40;99.90;;;;;;5089490;28;20071;-69
2022/06/08 01:31:43;;;;;;;14.80;6.35;;;10.40;99.90;;;;;;5088160;28;20035;-68
2022/06/08 01:34:25;;;;;;;14.23;5.88;;;10.40;99.90;;;;;;5091436;28;20485;-67
2022/06/08 01:37:07;;;;;;;13.18;6.95;;;10.40;99.90;;;;;;5086575;28;20048;-67
2022/06/08 01:39:51;;;;;;;13.98;7.05;;;10.40;99.90;;;;;;5087907;28;20398;-68
2022/06/08 01:42:47;;;;;;;12.65;6.60;;;10.40;99.90;;;;;;5081495;28;20032;-68
2022/06/08 01:45:42;;;;;;;11.45;6.60;;;10.40;99.90;;;;;;5087044;28;20037;-69
2022/06/08 01:48:11;;;;;;;11.90;6.65;;;10.40;99.90;;;;;;5082808;28;20079;-67
2022/06/08 01:50:42;;;;;;;13.43;6.82;;;10.40;99.90;;;;;;5092801;28;20119;-68
2022/06/08 01:53:27;;;;;;;14.23;6.68;;;10.30;99.90;;;;;;5086276;28;20090;-68
2022/06/08 01:56:26;;;;;;;15.32;6.75;;;10.30;99.90;;;;;;5086679;28;20119;-68
2022/06/08 01:59:03;;;;;;;15.48;7.22;;;10.30;99.90;;;;;;5083627;28;20046;-68
2022/06/08 02:01:39;;;;;;;12.07;6.32;;;10.30;99.90;;;;;;5085949;28;20052;-68
2022/06/08 02:04:19;;;;;;;12.52;7.10;;;10.30;99.90;;;;;;5090517;28;20127;-69
2022/06/08 02:07:11;;;;;;;14.80;7.13;;;10.30;99.90;;;;;;5090007;28;20040;-68
2022/06/08 02:09:41;;;;;;;15.65;7.13;;;10.30;99.90;;;;;;5087133;28;20545;-68
2022/06/08 02:12:10;;;;;;;11.68;6.50;;;10.30;99.90;;;;;;5087321;28;20085;-68
2022/06/08 02:14:56;;;;;;;10.45;6.72;;;10.30;99.90;;;;;;5088198;28;20036;-66
2022/06/08 02:17:40;;;;;;;16.00;7.35;;;10.40;99.90;;;;;;5090701;28;20127;-68
2022/06/08 02:20:10;;;;;;;11.10;7.68;;;10.30;99.90;;;;;;5093200;28;20048;-68
2022/06/08 02:22:45;;;;;;;16.75;7.72;;;10.30;99.90;;;;;;5087752;28;20048;-68
2022/06/08 02:25:40;;;;;;;14.68;7.35;;;10.30;99.90;;;;;;5073370;28;20044;-67
2022/06/08 02:28:22;;;;;;;15.50;6.93;;;10.30;99.90;;;;;;5087183;28;20047;-67
2022/06/08 02:30:56;;;;;;;17.08;6.85;;;10.30;99.90;;;;;;5091545;28;20055;-67
2022/06/08 02:36:28;;;;;;;16.65;7.78;;;10.30;99.90;;;;;;5089222;28;20055;-68
2022/06/08 02:39:18;;;;;;;17.88;8.10;;;10.30;99.90;;;;;;5082267;28;20062;-68
2022/06/08 02:41:47;;;;;;;;;;;10.40;99.90;;;;;;5089012;28;20048;-68
2022/06/08 02:44:21;;;;;;;14.05;7.60;;;10.30;99.90;;;;;;5085839;28;19920;-67
2022/06/08 02:47:17;;;;;;;13.35;7.60;;;10.30;99.90;;;;;;5085735;28;20048;-68
2022/06/08 02:49:43;;;;;;;13.55;8.20;;;10.30;99.90;;;;;;5089143;28;20079;-68
2022/06/08 02:52:22;;;;;;;13.82;7.32;;;10.30;99.90;;;;;;5086737;28;20462;-67
2022/06/08 02:54:48;;;;;;;;;;;10.30;99.90;;;;;;5084053;28;20036;-68
2022/06/08 02:57:44;;;;;;;17.85;8.43;;;10.30;99.90;;;;;;5090238;28;19931;-67
2022/06/08 03:00:17;;;;;;;13.93;7.43;;;10.30;99.90;;;;;;5082133;28;20044;-67
2022/06/08 03:03:07;;;;;;;17.90;8.20;;;10.30;99.90;;;;;;5084071;28;20119;-68
2022/06/08 03:05:48;;;;;;;13.15;7.65;;;10.30;99.90;;;;;;5091846;28;20568;-67
2022/06/08 03:08:19;;;;;;;15.80;8.90;;;10.30;99.90;;;;;;5088802;28;20039;-68
2022/06/08 03:10:47;;;;;;;16.63;8.75;;;10.30;99.90;;;;;;5089422;28;20039;-68
2022/06/08 03:13:26;;;;;;;17.15;9.27;;;10.30;99.90;;;;;;5105049;28;20515;-67
2022/06/08 03:15:58;;;;;;;15.65;9.52;;;10.30;99.90;;;;;;5086406;28;20040;-67
2022/06/08 03:18:24;;;;;;;15.32;9.18;;;10.30;99.90;;;;;;5085540;28;20048;-67
2022/06/08 03:20:51;;;;;;;14.10;9.73;;;10.30;99.90;;;;;;5089816;28;20177;-68
2022/06/08 03:23:17;;;;;;;22.38;10.25;;;10.30;99.90;;;;;;5089675;28;20114;-68
2022/06/08 03:25:43;;;;;;;15.20;9.85;;;10.30;99.90;;;;;;5092201;28;20056;-67
2022/06/08 03:28:12;;;;;;;14.60;9.30;;;10.30;99.90;;;;;;5081054;28;20049;-67
2022/06/08 03:30:39;;;;;;;15.57;10.48;;;10.40;99.90;;;;;;5090426;28;20136;-67
2022/06/08 03:33:05;;;;;;;19.08;11.40;;;10.30;99.90;;;;;;5085289;28;20043;-68
2022/06/08 03:35:31;;;;;;;19.38;11.75;;;10.30;99.90;;;;;;5077524;28;20406;-67
2022/06/08 03:37:58;;;;;;;28.00;12.85;;;10.30;99.90;;;;;;5088361;28;20043;-68
2022/06/08 03:40:24;;;;;;;18.27;11.02;;;10.40;99.90;;;;;;5085725;28;20047;-68
2022/06/08 03:42:50;;;;;;;20.77;11.60;;;10.40;99.90;;;;;;5087695;28;20036;-68
2022/06/08 03:45:15;;;;;;;21.50;12.13;;;10.40;99.90;;;;;;5088856;28;20115;-68
2022/06/08 03:47:44;;;;;;;19.10;11.75;;;10.40;99.90;;;;;;5087300;28;20043;-68
2022/06/08 03:50:14;;;;;;;23.92;12.98;;;10.40;99.90;;;;;;5090773;28;20042;-67
2022/06/08 03:52:45;;;;;;;24.13;12.07;;;10.40;99.90;;;;;;5083928;28;20047;-68
2022/06/08 03:55:14;;;;;;;23.40;12.65;;;10.40;99.90;;;;;;5089385;28;20131;-68
2022/06/08 03:57:44;;;;;;;20.88;11.95;;;10.40;99.90;;;;;;5088906;28;20083;-68
2022/06/08 04:00:12;;;;;;;25.95;12.73;;;10.50;99.90;;;;;;5086504;28;20123;-67
2022/06/08 04:02:38;;;;;;;;;;;10.50;99.90;;;;;;5075988;28;20040;-67
2022/06/08 04:05:05;;;;;;;22.30;13.30;;;10.50;99.90;;;;;;5085549;28;19942;-67
2022/06/08 04:07:32;;;;;;;24.98;13.20;;;10.50;99.90;;;;;;5089595;28;20478;-68
2022/06/08 04:09:59;;;;;;;26.23;13.68;;;10.50;99.90;;;;;;5084721;28;20048;-68
2022/06/08 04:12:25;;;;;;;28.23;14.35;;;10.60;99.90;;;;;;5084006;28;20044;-67
2022/06/08 04:14:51;;;;;;;22.88;13.05;;;10.60;99.90;;;;;;5088430;28;20040;-66
2022/06/08 04:17:17;;;;;;;26.10;13.00;;;10.60;99.90;;;;;;5085519;28;20043;-68
2022/06/08 04:19:44;;;;;;;21.35;12.50;;;10.70;99.90;;;;;;5090572;28;20044;-67
2022/06/08 04:22:09;;;;;;;20.85;12.43;;;10.70;99.90;;;;;;5081124;28;20036;-67
2022/06/08 04:24:36;;;;;;;21.55;12.95;;;10.70;99.90;;;;;;5084393;28;20455;-67
2022/06/08 04:27:02;;;;;;;25.30;13.18;;;10.80;99.90;;;;;;5078764;28;20142;-68
2022/06/08 04:29:28;;;;;;;20.15;11.82;;;10.80;99.90;;;;;;5090159;28;20116;-68
2022/06/08 04:31:53;;;;;;;20.73;11.65;;;10.90;99.90;;;;;;5087398;28;20119;-69
2022/06/08 04:34:19;;;;;;;19.58;12.48;;;10.90;99.90;;;;;;5085328;28;20044;-67
2022/06/08 04:36:45;;;;;;;19.73;12.35;;;10.90;99.90;;;;;;5085229;28;20044;-68
2022/06/08 04:39:13;;;;;;;22.85;12.35;;;11.00;99.90;;;;;;5087426;28;20032;-69
2022/06/08 04:41:39;;;;;;;19.00;11.82;;;11.10;99.90;;;;;;5087760;28;20040;-68
2022/06/08 04:44:05;;;;;;;23.02;12.70;;;11.20;99.90;;;;;;5090175;28;20406;-68
2022/06/08 04:46:31;;;;;;;20.23;12.77;;;11.30;99.90;;;;;;5086486;28;20075;-66
2022/06/08 04:48:57;;;;;;;22.67;12.93;;;11.40;99.90;;;;;;5086969;28;20125;-67
2022/06/08 04:51:23;;;;;;;21.98;13.38;;;11.60;99.90;;;;;;5101921;28;20032;-68
2022/06/08 04:53:49;;;;;;;19.08;13.10;;;11.80;99.90;;;;;;5084378;28;20044;-68
2022/06/08 04:56:15;;;;;;;24.08;13.25;;;11.90;99.90;;;;;;5086035;28;20413;-68
2022/06/08 04:58:41;;;;;;;21.80;14.57;;;12.00;99.90;;;;;;5085217;28;20509;-66
2022/06/08 05:01:07;;;;;;;23.98;15.27;;;12.10;99.90;;;;;;5082334;28;20047;-69
2022/06/08 05:03:33;;;;;;;26.33;15.27;;;12.20;99.90;;;;;;5085737;28;20055;-66
2022/06/08 05:06:00;;;;;;;22.85;14.88;;;12.30;99.90;;;;;;5089795;28;20044;-67
2022/06/08 05:08:26;;;;;;;26.13;15.13;;;12.40;99.90;;;;;;5083579;28;20482;-68
2022/06/08 05:10:54;;;;;;;27.15;15.20;;;12.50;99.90;;;;;;5082646;28;20033;-69
2022/06/08 05:13:21;;;;;;;29.13;17.33;;;12.60;99.90;;;;;;5089427;28;20144;-68
2022/06/08 05:15:49;;;;;;;23.45;15.77;;;12.60;99.90;;;;;;5089569;28;20075;-68
2022/06/08 05:18:16;;;;;;;30.48;17.70;;;12.70;99.90;;;;;;5093774;28;20036;-68
2022/06/08 05:20:44;;;;;;;24.20;16.23;;;12.70;99.90;;;;;;5083963;28;20054;-68
2022/06/08 05:23:15;;;;;;;26.98;17.83;;;12.70;99.90;;;;;;5088595;28;20298;-68
2022/06/08 05:25:41;;;;;;;26.67;17.73;;;12.70;99.90;;;;;;5104983;27;20378;-68
2022/06/08 05:28:08;;;;;;;31.45;18.20;;;12.70;99.90;;;;;;5088447;28;20040;-68
2022/06/08 05:30:35;;;;;;;26.88;17.65;;;12.80;99.90;;;;;;5085212;28;20040;-67
2022/06/08 05:33:03;;;;;;;27.13;17.60;;;12.80;99.90;;;;;;5087837;28;20032;-67
2022/06/08 05:35:29;;;;;;;28.17;17.48;;;12.90;99.90;;;;;;5087717;28;20109;-66
2022/06/08 05:37:55;;;;;;;33.65;17.98;;;12.90;99.90;;;;;;5097178;28;20031;-66
2022/06/08 05:40:22;;;;;;;28.05;19.30;;;12.90;99.90;;;;;;5097373;28;20047;-67
2022/06/08 05:42:48;;;;;;;29.30;18.67;;;13.00;99.90;;;;;;5091000;28;20042;-67
2022/06/08 05:45:22;;;;;;;29.08;18.13;;;13.00;99.90;;;;;;5084590;28;20402;-66
2022/06/08 05:47:48;;;;;;;29.90;19.23;;;13.10;99.90;;;;;;5084836;28;20490;-66
2022/06/08 05:50:14;;;;;;;32.03;18.65;;;13.10;99.90;;;;;;5083953;28;20416;-67
2022/06/08 05:52:41;;;;;;;30.13;18.75;;;13.10;99.90;;;;;;5089795;28;20035;-68
2022/06/08 05:55:07;;;;;;;25.65;18.65;;;13.20;99.90;;;;;;5086856;28;20043;-67
2022/06/08 05:57:33;;;;;;;27.27;18.33;;;13.30;99.90;;;;;;5094154;28;20047;-67
2022/06/08 05:59:59;;;;;;;29.35;20.08;;;13.40;99.90;;;;;;5090465;28;20044;-68
2022/06/08 06:02:24;;;;;;;33.55;18.70;;;13.40;99.90;;;;;;5101344;28;20134;-68
2022/06/08 06:04:50;;;;;;;30.70;18.55;;;13.50;99.90;;;;;;5089290;28;20036;-68
2022/06/08 06:07:16;;;;;;;26.67;18.27;;;13.50;99.90;;;;;;5090486;28;20210;-67
2022/06/08 06:09:43;;;;;;;33.50;18.92;;;13.60;99.90;;;;;;5087558;28;20075;-66
2022/06/08 06:12:09;;;;;;;28.27;18.63;;;13.70;99.90;;;;;;5093610;28;20046;-67
2022/06/08 06:14:36;;;;;;;29.35;18.50;;;13.80;99.90;;;;;;5091183;28;20089;-67
2022/06/08 06:17:02;;;;;;;30.63;18.55;;;13.80;99.90;;;;;;5087234;28;20051;-67
2022/06/08 06:19:28;;;;;;;29.73;18.35;;;14.00;99.90;;;;;;5087999;28;20389;-68
2022/06/08 06:21:54;;;;;;;26.50;17.38;;;14.10;99.90;;;;;;5089757;28;20035;-67
2022/06/08 06:24:20;;;;;;;22.60;15.75;;;14.20;99.90;;;;;;5090923;28;20505;-67
2022/06/08 06:26:46;;;;;;;23.63;16.85;;;14.30;99.90;;;;;;5089146;28;20036;-66
2022/06/08 06:29:12;;;;;;;25.30;15.90;;;14.40;99.90;;;;;;5084613;28;20160;-66
2022/06/08 06:31:43;;;;;;;23.02;15.32;;;14.50;99.90;;;;;;5082141;28;20118;-68
2022/06/08 06:34:15;;;;;;;28.67;15.55;;;14.60;99.90;;;;;;5088203;28;20509;-67
2022/06/08 06:36:41;;;;;;;20.92;15.13;;;14.70;99.90;;;;;;5086896;28;20504;-67
2022/06/08 06:39:07;;;;;;;21.95;14.35;;;14.90;99.90;;;;;;5089580;28;20097;-67
2022/06/08 06:41:33;;;;;;;16.85;13.93;;;14.90;99.90;;;;;;5093222;28;20036;-69
2022/06/08 06:44:00;;;;;;;22.80;14.18;;;15.00;99.90;;;;;;5087026;28;20044;-66
2022/06/08 06:46:27;;;;;;;20.02;14.35;;;15.20;99.90;;;;;;5086998;28;20052;-69
2022/06/08 06:48:52;;;;;;;21.65;14.15;;;15.30;99.90;;;;;;5082435;28;20058;-69
2022/06/08 06:51:18;;;;;;;24.67;14.50;;;15.50;99.90;;;;;;5091614;28;20044;-67
2022/06/08 06:53:44;;;;;;;20.45;13.75;;;15.60;99.90;;;;;;5084992;28;20040;-68
2022/06/08 06:56:10;;;;;;;18.80;13.85;;;15.70;99.90;;;;;;5088065;28;20705;-69
2022/06/08 06:58:36;;;;;;;21.70;13.88;;;15.80;99.90;;;;;;5091618;28;20044;-68
2022/06/08 07:01:04;;;;;;;18.10;13.30;;;15.80;99.90;;;;;;5085166;28;20213;-68
2022/06/08 07:03:30;;;;;;;21.30;13.93;;;16.00;99.90;;;;;;5090683;28;20044;-69
2022/06/08 07:05:56;;;;;;;19.80;13.70;;;16.10;99.90;;;;;;5087283;28;20036;-67
2022/06/08 07:08:22;;;;;;;25.02;13.88;;;16.30;99.90;;;;;;5089546;28;20050;-68
2022/06/08 07:11:32;;;;;;;25.92;13.15;;;16.40;99.90;;;;;;5079936;28;20082;-68
2022/06/08 07:13:34;;;;;;;19.27;12.63;;;16.50;99.90;;;;;;5082492;28;20036;-68
2022/06/08 07:16:00;;;;;;;18.75;12.20;;;16.60;99.90;;;;;;5109200;28;20043;-67
2022/06/08 07:18:26;;;;;;;20.08;12.05;;;16.50;99.90;;;;;;5090280;28;20048;-67
2022/06/08 07:20:53;;;;;;;22.23;13.10;;;16.50;99.90;;;;;;5067932;28;20045;-68
2022/06/08 07:23:18;;;;;;;24.25;12.85;;;16.50;99.90;;;;;;5088881;28;20389;-67
2022/06/08 07:25:44;;;;;;;27.35;11.93;;;16.50;99.90;;;;;;5087388;28;20048;-67
2022/06/08 07:28:09;;;;;;;16.35;11.57;;;16.60;99.90;;;;;;5092615;28;20409;-69
2022/06/08 07:30:36;;;;;;;16.05;11.73;;;16.80;99.90;;;;;;5106942;28;20044;-67
2022/06/08 07:33:02;;;;;;;17.00;11.35;;;17.00;99.90;;;;;;5085366;28;20040;-68
2022/06/08 07:35:28;;;;;;;13.93;10.10;;;17.30;99.90;;;;;;5092032;28;20090;-68
2022/06/08 07:37:54;;;;;;;12.20;9.55;;;17.50;99.90;;;;;;5089432;28;20053;-69
2022/06/08 07:40:20;;;;;;;13.70;9.25;;;17.70;99.90;;;;;;5087657;28;20115;-67
2022/06/08 07:42:45;;;;;;;12.48;9.05;;;17.80;99.90;;;;;;5086311;28;20133;-67
2022/06/08 07:45:12;;;;;;;12.30;8.63;;;17.90;99.90;;;;;;5085241;28;20134;-68
2022/06/08 07:49:36;;;;;;;11.40;7.55;;;17.90;99.90;;;;;;5077180;28;20046;-67
2022/06/08 07:50:26;;;;;;;11.98;8.73;;;18.00;99.90;;;;;;5083544;28;20056;-68
2022/06/08 07:52:52;;;;;;;12.13;7.88;;;18.00;99.90;;;;;;5070892;28;20054;-68
2022/06/08 07:55:17;;;;;;;11.05;8.27;;;18.00;99.90;;;;;;5072511;28;20039;-68
2022/06/08 07:57:47;;;;;;;11.38;8.18;;;18.10;99.90;;;;;;5108116;28;20040;-68
2022/06/08 08:00:15;;;;;;;11.98;7.30;;;18.10;99.90;;;;;;5072326;28;20488;-68
2022/06/08 08:02:41;;;;;;;15.15;7.88;;;18.10;99.90;;;;;;5075174;28;20087;-68
2022/06/08 08:05:09;;;;;;;9.80;6.55;;;18.10;99.90;;;;;;5071883;28;20048;-68
2022/06/08 08:07:36;;;;;;;11.00;6.63;;;18.10;99.90;;;;;;5071808;28;20055;-69
2022/06/08 08:10:07;;;;;;;13.73;6.30;;;18.10;99.90;;;;;;5074814;28;20032;-67
2022/06/08 08:12:33;;;;;;;7.90;5.75;;;18.10;99.90;;;;;;5090979;28;20082;-68
2022/06/08 08:14:58;;;;;;;11.50;5.50;;;18.10;99.90;;;;;;5092259;28;20071;-67
2022/06/08 08:17:24;;;;;;;9.30;5.85;;;18.20;99.90;;;;;;5073929;28;20048;-68
2022/06/08 08:19:50;;;;;;;8.57;5.50;;;18.30;99.90;;;;;;5072817;28;20039;-68
2022/06/08 08:22:19;;;;;;;7.28;5.10;;;18.40;99.90;;;;;;5071897;28;20048;-69
2022/06/08 08:24:45;;;;;;;8.30;5.28;;;18.50;99.90;;;;;;5085378;28;20059;-68
2022/06/08 08:27:11;;;;;;;9.35;5.60;;;18.60;99.90;;;;;;5091809;28;20040;-68
2022/06/08 08:29:37;;;;;;;10.07;5.75;;;18.70;99.90;;;;;;5089276;28;20039;-68
2022/06/08 08:32:03;;;;;;;8.63;4.80;;;18.80;99.90;;;;;;5070682;28;20383;-68
2022/06/08 08:34:29;;;;;;;6.45;4.82;;;18.90;99.90;;;;;;5071476;28;20073;-68
2022/06/08 08:36:55;;;;;;;8.60;4.68;;;19.00;99.90;;;;;;5072797;28;20036;-67
2022/06/08 08:39:22;;;;;;;8.27;4.43;;;19.10;99.90;;;;;;5081883;28;20046;-69
2022/06/08 08:44:41;;;;;;;7.10;4.20;;;19.50;99.90;;;;;;5078005;28;20049;-66
2022/06/08 08:47:35;;;;;;;6.65;3.50;;;19.50;99.90;;;;;;5071542;28;20560;-67
2022/06/08 08:50:25;;;;;;;9.63;4.75;;;19.60;99.90;;;;;;5070518;28;20127;-68
2022/06/08 08:52:58;;;;;;;8.43;3.78;;;19.60;99.90;;;;;;5091305;28;20398;-68
2022/06/08 08:55:32;;;;;;;5.88;3.10;;;19.50;99.90;;;;;;5090628;28;20116;-69
2022/06/08 08:58:07;;;;;;;4.88;2.78;;;19.60;99.90;;;;;;5084648;28;20044;-68
2022/06/08 09:00:56;;;;;;;3.97;2.90;;;19.50;99.90;;;;;;5095502;28;20063;-67
2022/06/08 09:03:27;;;;;;;4.05;2.78;;;19.50;99.90;;;;;;5078657;28;20056;-67
2022/06/08 09:06:17;;;;;;;4.93;2.55;;;19.60;99.90;;;;;;5094374;28;20047;-67
2022/06/08 09:08:45;;;;;;;3.97;2.47;;;19.80;99.90;;;;;;5092200;28;20087;-68
2022/06/08 09:11:17;;;;;;;4.00;2.05;;;20.00;99.90;;;;;;5092990;28;20055;-68
2022/06/08 09:13:50;;;;;;;6.68;1.77;;;20.20;99.90;;;;;;5074460;28;20373;-68
2022/06/08 09:16:35;;;;;;;3.58;1.83;;;20.40;99.90;;;;;;5094537;28;20044;-66
2022/06/08 09:19:21;;;;;;;4.57;1.60;;;20.70;99.90;;;;;;5075446;28;20048;-67
2022/06/08 09:21:48;;;;;;;2.47;1.60;;;21.00;99.90;;;;;;5093730;28;20055;-69
2022/06/08 09:24:20;;;;;;;3.45;1.60;;;21.20;99.90;;;;;;5091395;28;20040;-68
2022/06/08 09:26:47;;;;;;;7.22;2.15;;;21.30;99.90;;;;;;5074790;28;20080;-68
2022/06/08 09:29:20;;;;;;;3.72;1.80;;;21.30;99.90;;;;;;5075078;28;20127;-69
2022/06/08 09:31:47;;;;;;;3.03;1.90;;;21.30;99.90;;;;;;5075021;28;20040;-68
2022/06/08 09:34:23;;;;;;;5.07;2.00;;;21.10;99.90;;;;;;5074549;28;20414;-68
2022/06/08 09:37:12;;;;;;;5.25;2.08;;;21.00;99.90;;;;;;5074474;28;20092;-67
2022/06/08 09:39:43;;;;;;;4.57;2.13;;;21.00;99.90;;;;;;5086428;28;20127;-69
2022/06/08 09:42:21;;;;;;;3.15;1.55;;;21.10;99.90;;;;;;5092654;28;20040;-68
2022/06/08 09:45:19;;;;;;;3.20;1.60;;;21.20;99.90;;;;;;5095111;28;20319;-68
2022/06/08 09:51:26;;;;;;;4.88;1.80;;;21.60;99.90;;;;;;5094994;28;20052;-68
2022/06/08 09:54:12;;;;;;;3.28;1.92;;;21.90;99.90;;;;;;5092629;28;20073;-68
2022/06/08 09:57:03;;;;;;;4.22;1.70;;;22.00;99.90;;;;;;5084742;28;20493;-68
2022/06/08 09:59:50;;;;;;;4.15;1.90;;;21.90;99.90;;;;;;5076440;28;20047;-68
2022/06/08 10:02:28;;;;;;;4.97;1.77;;;21.90;99.90;;;;;;5084808;28;20052;-67
2022/06/08 10:05:08;;;;;;;5.00;1.70;;;21.80;99.90;;;;;;5084840;28;20044;-68
2022/06/08 10:08:16;;;;;;;4.53;1.65;;;21.70;99.90;;;;;;5074289;28;20040;-68
2022/06/08 10:10:52;;;;;;;3.53;1.75;;;21.70;99.90;;;;;;5090097;28;20090;-66
2022/06/08 10:13:32;;;;;;;5.72;1.90;;;21.80;99.90;;;;;;5093291;28;20040;-67
2022/06/08 10:16:10;;;;;;;4.35;2.28;;;21.90;99.90;;;;;;5078691;28;20045;-67
2022/06/08 10:18:49;;;;;;;5.75;2.47;;;21.80;99.90;;;;;;5074029;28;20571;-68
2022/06/08 10:21:24;;;;;;;5.82;2.50;;;21.60;99.90;;;;;;5073182;28;20449;-68
2022/06/08 10:23:59;;;;;;;4.80;2.45;;;21.40;99.90;;;;;;5098642;28;20044;-67
2022/06/08 10:26:37;;;;;;;7.47;2.13;;;21.30;99.90;;;;;;5093544;28;20044;-67
2022/06/08 10:29:49;;;;;;;3.88;2.20;;;21.20;99.90;;;;;;5078430;28;20045;-68
2022/06/08 10:32:33;;;;;;;3.95;2.28;;;21.10;99.90;;;;;;5067599;28;20441;-67
2022/06/08 10:35:12;;;;;;;4.85;2.20;;;20.90;99.90;;;;;;5073437;28;20041;-67
2022/06/08 10:37:40;;;;;;;7.65;2.85;;;20.80;99.90;;;;;;5073435;28;20049;-68
2022/06/08 10:40:20;;;;;;;4.85;2.60;;;20.70;99.90;;;;;;5084526;28;20040;-69
2022/06/08 10:42:49;;;;;;;4.43;2.47;;;20.90;99.90;;;;;;5093620;28;20493;-68
2022/06/08 10:45:23;;;;;;;4.07;2.33;;;20.90;99.90;;;;;;5088729;28;20044;-68
2022/06/08 10:48:22;;;;;;;6.15;2.80;;;20.90;99.90;;;;;;5072125;28;20049;-67
2022/06/08 10:51:08;;;;;;;5.70;2.65;;;20.80;99.90;;;;;;5073212;28;20048;-68
2022/06/08 10:56:46;;;;;;;6.00;2.90;;;20.70;99.90;;;;;;5073429;28;20058;-66
2022/06/08 10:59:21;;;;;;;4.53;2.40;;;20.50;99.90;;;;;;5073037;28;20509;-68
2022/06/08 11:01:53;;;;;;;7.18;2.92;;;20.70;99.90;;;;;;5072821;28;20062;-68
2022/06/08 11:04:31;;;;;;;4.00;2.42;;;21.00;99.90;;;;;;5071904;28;20037;-65
2022/06/08 11:07:16;;;;;;;5.13;2.97;;;21.20;99.90;;;;;;5072946;28;20066;-68
2022/06/08 11:09:44;;;;;;;5.50;3.10;;;21.40;99.90;;;;;;5078290;28;20040;-68
2022/06/08 11:12:12;;;;;;;5.32;3.47;;;21.50;99.90;;;;;;5093486;28;20534;-69
2022/06/08 11:14:47;;;;;;;5.95;2.88;;;21.50;99.90;;;;;;5084247;28;20047;-68
2022/06/08 11:17:23;;;;;;;4.55;2.97;;;21.50;99.90;;;;;;5100558;28;20044;-67
2022/06/08 11:19:56;;;;;;;5.30;2.90;;;21.40;99.90;;;;;;5088358;28;20543;-68
2022/06/08 11:22:32;;;;;;;5.95;3.00;;;21.30;99.90;;;;;;5083906;28;20047;-68
2022/06/08 11:25:04;;;;;;;4.50;3.20;;;21.20;99.90;;;;;;5092960;28;20048;-68
2022/06/08 11:27:32;;;;;;;8.90;3.53;;;21.00;99.90;;;;;;5083661;28;20054;-68
2022/06/08 11:30:21;;;;;;;14.07;4.00;;;20.70;99.90;;;;;;5088400;28;20521;-68
2022/06/08 11:32:52;;;;;;;5.32;3.38;;;20.50;99.90;;;;;;5051824;28;20426;-68
2022/06/08 11:35:23;;;;;;;8.13;3.50;;;20.30;99.90;;;;;;5072183;28;20048;-69
2022/06/08 11:38:16;;;;;;;8.68;3.53;;;20.20;99.90;;;;;;5090526;28;20056;-68
2022/06/08 11:40:42;;;;;;;9.15;3.55;;;20.00;99.90;;;;;;5072319;28;20645;-69
2022/06/08 11:43:15;;;;;;;5.85;3.20;;;19.90;99.90;;;;;;5090321;28;20462;-68
2022/06/08 11:45:44;;;;;;;8.40;3.78;;;19.80;99.90;;;;;;5076749;28;20052;-67
2022/06/08 11:48:21;;;;;;;5.45;3.55;;;19.60;99.90;;;;;;5072154;28;20279;-68
2022/06/08 11:50:50;;;;;;;6.45;4.10;;;19.50;99.90;;;;;;5075520;28;20123;-68
2022/06/08 11:53:28;;;;;;;11.32;5.00;;;19.50;99.90;;;;;;5080008;28;20044;-67
2022/06/08 11:56:16;;;;;;;13.15;4.97;;;19.30;99.90;;;;;;5072338;28;20048;-67
2022/06/08 11:58:46;;;;;;;13.65;6.43;;;19.20;99.90;;;;;;5072198;28;20082;-67
2022/06/08 12:01:54;;;;;;;12.00;5.25;;;19.00;99.90;;;;;;5072094;28;20083;-67
2022/06/08 12:04:25;;;;;;;6.30;4.68;;;18.90;99.90;;;;;;5071301;28;20498;-68
2022/06/08 12:06:52;;;;;;;;;;;18.80;99.90;;;;;;5087973;28;20130;-68
2022/06/08 12:09:29;;;;;;;10.00;5.47;;;18.80;99.90;;;;;;5089827;28;19963;-67
2022/06/08 12:12:11;;;;;;;9.50;5.70;;;18.70;99.90;;;;;;5072904;28;20044;-68
2022/06/08 12:14:38;;;;;;;9.55;4.90;;;18.70;99.90;;;;;;5072121;28;20495;-67
2022/06/08 12:17:10;;;;;;;11.82;5.88;;;18.70;99.90;;;;;;5071783;28;20041;-67
2022/06/08 12:19:45;;;;;;;10.93;5.63;;;18.60;99.90;;;;;;5071988;28;20048;-67
2022/06/08 12:22:27;;;;;;;9.45;6.38;;;18.60;99.90;;;;;;5091067;28;20044;-67
2022/06/08 12:25:17;;;;;;;11.60;5.72;;;18.50;99.90;;;;;;5090901;28;20036;-67
2022/06/08 12:27:54;;;;;;;9.63;5.65;;;18.50;99.90;;;;;;5084427;28;20044;-66
2022/06/08 12:30:22;;;;;;;14.15;6.50;;;18.50;99.90;;;;;;5071050;28;20140;-67
2022/06/08 12:33:13;;;;;;;14.15;7.68;;;18.60;99.90;;;;;;5071988;28;20043;-66
2022/06/08 12:35:50;;;;;;;11.25;6.45;;;19.00;99.90;;;;;;5080411;28;20052;-66
2022/06/08 12:38:27;;;;;;;8.25;6.40;;;19.30;99.90;;;;;;5088934;28;20041;-68
2022/06/08 12:41:01;;;;;;;10.40;6.25;;;19.50;99.90;;;;;;5097683;28;20073;-67
2022/06/08 12:43:48;;;;;;;13.70;7.15;;;19.50;99.90;;;;;;5092420;28;20036;-67
2022/06/08 12:46:15;;;;;;;18.92;8.10;;;19.30;99.90;;;;;;5091188;28;20048;-67
2022/06/08 12:48:46;;;;;;;15.32;6.53;;;19.10;99.90;;;;;;5076163;28;20051;-68
2022/06/08 12:51:25;;;;;;;12.05;5.80;;;18.70;99.90;;;;;;5086464;28;20044;-67
2022/06/08 12:53:51;;;;;;;11.20;5.15;;;18.40;99.90;;;;;;5091106;28;20089;-66
2022/06/08 12:56:18;;;;;;;19.13;6.20;;;18.10;99.90;;;;;;5062202;28;20045;-69
2022/06/08 12:58:51;;;;;;;8.18;4.00;;;17.90;99.90;;;;;;5088188;28;20048;-67
2022/06/08 13:01:19;;;;;;;11.13;3.50;;;17.80;99.90;;;;;;5091632;28;20052;-67
2022/06/08 13:03:45;;;;;;;;;;;17.60;99.90;;;;;;5087478;28;20047;-67
2022/06/08 13:06:11;;;;;;;7.80;3.17;;;17.50;99.90;;;;;;5087890;28;19920;-68
2022/06/08 13:08:37;;;;;;;8.65;3.58;;;17.40;99.90;;;;;;5090347;28;20067;-68
2022/06/08 13:11:11;;;;;;;8.20;3.58;;;17.40;99.90;;;;;;5091531;28;20040;-68
2022/06/08 13:13:37;;;;;;;6.65;2.55;;;17.20;99.90;;;;;;5090442;28;20040;-68
2022/06/08 13:16:12;;;;;;;5.85;2.78;;;17.20;99.90;;;;;;5107624;28;20055;-68